sensor_id;sensor_type;location;lat;lon;timestamp;P1;durP1;ratioP1;P2;durP2;ratioP2
45714;SDS011;31430;61.646;24.704;2023-04-03T00:01:42;52.67;;;49.38;;
45714;SDS011;31430;61.646;24.704;2023-04-03T00:04:07;52.45;;;49.17;;
45714;SDS011;31430;61.646;24.704;2023-04-03T00:06:33;53.63;;;50.30;;
45714;SDS011;31430;61.646;24.704;2023-04-03T00:09:00;51.10;;;47.90;;
45714;SDS011;31430;61.646;24.704;2023-04-03T00:11:25;51.78;;;48.58;;
45714;SDS011;31430;61.646;24.704;2023-04-03T00:13:51;52.28;;;49.03;;
45714;SDS011;31430;61.646;24.704;2023-04-03T00:16:17;51.45;;;48.25;;
45714;SDS011;31430;61.646;24.704;2023-04-03T00:18:43;52.90;;;49.60;;
45714;SDS011;31430;61.646;24.704;2023-04-03T00:21:09;53.22;;;49.92;;
45714;SDS011;31430;61.646;24.704;2023-04-03T00:23:37;54.95;;;51.55;;
45714;SDS011;31430;61.646;24.704;2023-04-03T00:26:02;54.00;;;50.63;;
45714;SDS011;31430;61.646;24.704;2023-04-03T00:28:28;51.35;;;48.15;;
45714;SDS011;31430;61.646;24.704;2023-04-03T00:30:54;52.70;;;49.40;;
45714;SDS011;31430;61.646;24.704;2023-04-03T00:33:20;52.30;;;49.05;;
45714;SDS011;31430;61.646;24.704;2023-04-03T00:35:46;53.80;;;50.45;;
45714;SDS011;31430;61.646;24.704;2023-04-03T00:38:13;53.47;;;50.15;;
45714;SDS011;31430;61.646;24.704;2023-04-03T00:40:41;52.03;;;48.80;;
45714;SDS011;31430;61.646;24.704;2023-04-03T00:43:10;52.85;;;49.55;;
45714;SDS011;31430;61.646;24.704;2023-04-03T00:45:42;52.42;;;49.15;;
45714;SDS011;31430;61.646;24.704;2023-04-03T00:48:11;52.13;;;48.88;;
45714;SDS011;31430;61.646;24.704;2023-04-03T00:50:42;51.28;;;48.08;;
45714;SDS011;31430;61.646;24.704;2023-04-03T00:53:11;53.38;;;50.08;;
45714;SDS011;31430;61.646;24.704;2023-04-03T00:55:40;52.53;;;49.25;;
45714;SDS011;31430;61.646;24.704;2023-04-03T00:58:07;52.05;;;48.83;;
45714;SDS011;31430;61.646;24.704;2023-04-03T01:00:35;52.15;;;48.90;;
45714;SDS011;31430;61.646;24.704;2023-04-03T01:03:03;53.38;;;50.08;;
45714;SDS011;31430;61.646;24.704;2023-04-03T01:05:29;52.28;;;49.03;;
45714;SDS011;31430;61.646;24.704;2023-04-03T01:07:55;52.50;;;49.22;;
45714;SDS011;31430;61.646;24.704;2023-04-03T01:10:23;53.78;;;50.42;;
45714;SDS011;31430;61.646;24.704;2023-04-03T01:12:50;53.22;;;49.92;;
45714;SDS011;31430;61.646;24.704;2023-04-03T01:17:49;52.92;;;49.63;;
45714;SDS011;31430;61.646;24.704;2023-04-03T01:25:36;54.08;;;50.70;;
45714;SDS011;31430;61.646;24.704;2023-04-03T01:28:03;53.95;;;50.60;;
45714;SDS011;31430;61.646;24.704;2023-04-03T01:30:32;53.03;;;49.72;;
45714;SDS011;31430;61.646;24.704;2023-04-03T01:35:53;57.40;;;53.83;;
45714;SDS011;31430;61.646;24.704;2023-04-03T01:38:19;56.25;;;52.75;;
45714;SDS011;31430;61.646;24.704;2023-04-03T01:40:45;56.38;;;52.88;;
45714;SDS011;31430;61.646;24.704;2023-04-03T01:43:11;54.40;;;51.00;;
45714;SDS011;31430;61.646;24.704;2023-04-03T01:45:37;55.88;;;52.40;;
45714;SDS011;31430;61.646;24.704;2023-04-03T01:48:03;54.90;;;51.50;;
45714;SDS011;31430;61.646;24.704;2023-04-03T01:50:29;53.13;;;49.83;;
45714;SDS011;31430;61.646;24.704;2023-04-03T01:52:55;53.67;;;50.35;;
45714;SDS011;31430;61.646;24.704;2023-04-03T01:55:20;52.28;;;49.03;;
45714;SDS011;31430;61.646;24.704;2023-04-03T01:57:46;53.80;;;50.45;;
45714;SDS011;31430;61.646;24.704;2023-04-03T02:00:12;54.08;;;50.70;;
45714;SDS011;31430;61.646;24.704;2023-04-03T02:02:38;55.50;;;52.05;;
45714;SDS011;31430;61.646;24.704;2023-04-03T02:05:04;53.40;;;50.10;;
45714;SDS011;31430;61.646;24.704;2023-04-03T02:07:31;52.55;;;49.28;;
45714;SDS011;31430;61.646;24.704;2023-04-03T02:09:56;52.83;;;49.53;;
45714;SDS011;31430;61.646;24.704;2023-04-03T02:12:22;54.67;;;51.28;;
45714;SDS011;31430;61.646;24.704;2023-04-03T02:14:48;52.72;;;49.42;;
45714;SDS011;31430;61.646;24.704;2023-04-03T02:17:13;53.22;;;49.92;;
45714;SDS011;31430;61.646;24.704;2023-04-03T02:19:40;54.22;;;50.85;;
45714;SDS011;31430;61.646;24.704;2023-04-03T02:22:05;54.65;;;51.25;;
45714;SDS011;31430;61.646;24.704;2023-04-03T02:24:31;54.80;;;51.40;;
45714;SDS011;31430;61.646;24.704;2023-04-03T02:26:57;55.15;;;51.72;;
45714;SDS011;31430;61.646;24.704;2023-04-03T02:29:23;52.78;;;49.47;;
45714;SDS011;31430;61.646;24.704;2023-04-03T02:31:49;53.85;;;50.50;;
45714;SDS011;31430;61.646;24.704;2023-04-03T02:34:15;54.92;;;51.53;;
45714;SDS011;31430;61.646;24.704;2023-04-03T02:36:41;52.47;;;49.20;;
45714;SDS011;31430;61.646;24.704;2023-04-03T02:39:07;53.53;;;50.20;;
45714;SDS011;31430;61.646;24.704;2023-04-03T02:41:34;54.97;;;51.58;;
45714;SDS011;31430;61.646;24.704;2023-04-03T02:44:05;54.50;;;51.10;;
45714;SDS011;31430;61.646;24.704;2023-04-03T02:46:32;53.28;;;49.97;;
45714;SDS011;31430;61.646;24.704;2023-04-03T02:48:58;52.60;;;49.30;;
45714;SDS011;31430;61.646;24.704;2023-04-03T02:51:23;52.70;;;49.40;;
45714;SDS011;31430;61.646;24.704;2023-04-03T02:53:49;53.97;;;50.63;;
45714;SDS011;31430;61.646;24.704;2023-04-03T02:56:15;54.97;;;51.58;;
45714;SDS011;31430;61.646;24.704;2023-04-03T02:58:43;52.60;;;49.33;;
45714;SDS011;31430;61.646;24.704;2023-04-03T03:01:09;54.85;;;51.45;;
45714;SDS011;31430;61.646;24.704;2023-04-03T03:03:35;56.53;;;53.03;;
45714;SDS011;31430;61.646;24.704;2023-04-03T03:06:07;54.90;;;51.50;;
45714;SDS011;31430;61.646;24.704;2023-04-03T03:08:35;53.35;;;50.05;;
45714;SDS011;31430;61.646;24.704;2023-04-03T03:11:04;52.65;;;49.35;;
45714;SDS011;31430;61.646;24.704;2023-04-03T03:13:30;53.67;;;50.35;;
45714;SDS011;31430;61.646;24.704;2023-04-03T03:15:56;53.55;;;50.22;;
45714;SDS011;31430;61.646;24.704;2023-04-03T03:18:23;54.05;;;50.67;;
45714;SDS011;31430;61.646;24.704;2023-04-03T03:20:53;54.88;;;51.47;;
45714;SDS011;31430;61.646;24.704;2023-04-03T03:23:20;52.97;;;49.67;;
45714;SDS011;31430;61.646;24.704;2023-04-03T03:25:47;53.45;;;50.15;;
45714;SDS011;31430;61.646;24.704;2023-04-03T03:28:12;55.80;;;52.30;;
45714;SDS011;31430;61.646;24.704;2023-04-03T03:30:38;54.42;;;51.03;;
45714;SDS011;31430;61.646;24.704;2023-04-03T03:33:04;53.45;;;50.15;;
45714;SDS011;31430;61.646;24.704;2023-04-03T03:35:30;53.08;;;49.78;;
45714;SDS011;31430;61.646;24.704;2023-04-03T03:37:55;53.30;;;50.00;;
45714;SDS011;31430;61.646;24.704;2023-04-03T03:40:21;53.65;;;50.33;;
45714;SDS011;31430;61.646;24.704;2023-04-03T03:42:47;54.92;;;51.53;;
45714;SDS011;31430;61.646;24.704;2023-04-03T03:45:12;54.38;;;50.97;;
45714;SDS011;31430;61.646;24.704;2023-04-03T03:47:38;52.80;;;49.50;;
45714;SDS011;31430;61.646;24.704;2023-04-03T03:50:05;53.03;;;49.72;;
45714;SDS011;31430;61.646;24.704;2023-04-03T03:52:31;55.25;;;51.83;;
45714;SDS011;31430;61.646;24.704;2023-04-03T03:54:57;54.10;;;50.72;;
45714;SDS011;31430;61.646;24.704;2023-04-03T03:57:23;54.92;;;51.53;;
45714;SDS011;31430;61.646;24.704;2023-04-03T03:59:49;52.70;;;49.40;;
45714;SDS011;31430;61.646;24.704;2023-04-03T04:02:16;54.17;;;50.80;;
45714;SDS011;31430;61.646;24.704;2023-04-03T04:04:42;55.35;;;51.90;;
45714;SDS011;31430;61.646;24.704;2023-04-03T04:07:08;54.50;;;51.10;;
45714;SDS011;31430;61.646;24.704;2023-04-03T04:09:33;53.63;;;50.30;;
45714;SDS011;31430;61.646;24.704;2023-04-03T04:11:59;53.90;;;50.55;;
45714;SDS011;31430;61.646;24.704;2023-04-03T04:14:25;53.00;;;49.70;;
45714;SDS011;31430;61.646;24.704;2023-04-03T04:16:51;54.55;;;51.15;;
45714;SDS011;31430;61.646;24.704;2023-04-03T04:19:17;53.50;;;50.20;;
45714;SDS011;31430;61.646;24.704;2023-04-03T04:21:42;54.92;;;51.53;;
45714;SDS011;31430;61.646;24.704;2023-04-03T04:24:08;52.17;;;48.92;;
45714;SDS011;31430;61.646;24.704;2023-04-03T04:26:34;52.72;;;49.42;;
45714;SDS011;31430;61.646;24.704;2023-04-03T04:29:00;53.22;;;49.92;;
45714;SDS011;31430;61.646;24.704;2023-04-03T04:31:26;52.65;;;49.35;;
45714;SDS011;31430;61.646;24.704;2023-04-03T04:33:52;51.75;;;48.55;;
45714;SDS011;31430;61.646;24.704;2023-04-03T04:36:18;51.75;;;48.55;;
45714;SDS011;31430;61.646;24.704;2023-04-03T04:38:44;53.63;;;50.30;;
45714;SDS011;31430;61.646;24.704;2023-04-03T04:41:10;52.00;;;48.78;;
45714;SDS011;31430;61.646;24.704;2023-04-03T04:43:36;51.65;;;48.45;;
45714;SDS011;31430;61.646;24.704;2023-04-03T04:46:05;52.92;;;49.63;;
45714;SDS011;31430;61.646;24.704;2023-04-03T04:48:33;51.60;;;48.40;;
45714;SDS011;31430;61.646;24.704;2023-04-03T04:51:00;52.97;;;49.67;;
45714;SDS011;31430;61.646;24.704;2023-04-03T04:53:26;52.78;;;49.47;;
45714;SDS011;31430;61.646;24.704;2023-04-03T04:55:52;53.22;;;49.92;;
45714;SDS011;31430;61.646;24.704;2023-04-03T04:58:18;53.33;;;50.03;;
45714;SDS011;31430;61.646;24.704;2023-04-03T05:00:44;51.50;;;48.30;;
45714;SDS011;31430;61.646;24.704;2023-04-03T05:03:10;53.03;;;49.72;;
45714;SDS011;31430;61.646;24.704;2023-04-03T05:05:36;51.55;;;48.35;;
45714;SDS011;31430;61.646;24.704;2023-04-03T05:08:02;53.72;;;50.40;;
45714;SDS011;31430;61.646;24.704;2023-04-03T05:10:29;52.53;;;49.25;;
45714;SDS011;31430;61.646;24.704;2023-04-03T05:12:55;50.55;;;47.40;;
45714;SDS011;31430;61.646;24.704;2023-04-03T05:15:20;52.83;;;49.53;;
45714;SDS011;31430;61.646;24.704;2023-04-03T05:17:46;50.67;;;47.53;;
45714;SDS011;31430;61.646;24.704;2023-04-03T05:20:12;52.33;;;49.08;;
45714;SDS011;31430;61.646;24.704;2023-04-03T05:22:38;49.70;;;46.60;;
45714;SDS011;31430;61.646;24.704;2023-04-03T05:25:04;51.70;;;48.50;;
45714;SDS011;31430;61.646;24.704;2023-04-03T05:27:30;50.88;;;47.70;;
45714;SDS011;31430;61.646;24.704;2023-04-03T05:29:56;50.05;;;46.95;;
45714;SDS011;31430;61.646;24.704;2023-04-03T05:32:23;50.38;;;47.25;;
45714;SDS011;31430;61.646;24.704;2023-04-03T05:34:50;50.83;;;47.65;;
45714;SDS011;31430;61.646;24.704;2023-04-03T05:37:16;51.97;;;48.75;;
45714;SDS011;31430;61.646;24.704;2023-04-03T05:39:42;50.92;;;47.75;;
45714;SDS011;31430;61.646;24.704;2023-04-03T05:42:08;49.88;;;46.78;;
45714;SDS011;31430;61.646;24.704;2023-04-03T05:44:34;50.85;;;47.67;;
45714;SDS011;31430;61.646;24.704;2023-04-03T05:47:00;48.80;;;45.78;;
45714;SDS011;31430;61.646;24.704;2023-04-03T05:49:26;49.90;;;46.80;;
45714;SDS011;31430;61.646;24.704;2023-04-03T05:51:51;49.38;;;46.28;;
45714;SDS011;31430;61.646;24.704;2023-04-03T05:54:19;51.13;;;47.92;;
45714;SDS011;31430;61.646;24.704;2023-04-03T05:56:49;51.53;;;48.33;;
45714;SDS011;31430;61.646;24.704;2023-04-03T05:59:16;49.72;;;46.63;;
45714;SDS011;31430;61.646;24.704;2023-04-03T06:01:42;50.90;;;47.72;;
45714;SDS011;31430;61.646;24.704;2023-04-03T06:04:08;49.58;;;46.47;;
45714;SDS011;31430;61.646;24.704;2023-04-03T06:09:17;50.30;;;47.17;;
45714;SDS011;31430;61.646;24.704;2023-04-03T06:11:44;49.75;;;46.65;;
45714;SDS011;31430;61.646;24.704;2023-04-03T06:14:11;50.70;;;47.55;;
45714;SDS011;31430;61.646;24.704;2023-04-03T06:16:37;50.22;;;47.13;;
45714;SDS011;31430;61.646;24.704;2023-04-03T06:19:04;48.35;;;45.35;;
45714;SDS011;31430;61.646;24.704;2023-04-03T06:21:30;47.95;;;44.95;;
45714;SDS011;31430;61.646;24.704;2023-04-03T06:23:56;48.47;;;45.47;;
45714;SDS011;31430;61.646;24.704;2023-04-03T06:26:22;47.38;;;44.42;;
45714;SDS011;31430;61.646;24.704;2023-04-03T06:28:48;50.17;;;47.08;;
45714;SDS011;31430;61.646;24.704;2023-04-03T06:31:14;48.17;;;45.17;;
45714;SDS011;31430;61.646;24.704;2023-04-03T06:33:40;49.15;;;46.10;;
45714;SDS011;31430;61.646;24.704;2023-04-03T06:36:06;47.85;;;44.85;;
45714;SDS011;31430;61.646;24.704;2023-04-03T06:38:33;48.35;;;45.35;;
45714;SDS011;31430;61.646;24.704;2023-04-03T06:40:59;48.15;;;45.15;;
45714;SDS011;31430;61.646;24.704;2023-04-03T06:43:25;48.40;;;45.40;;
45714;SDS011;31430;61.646;24.704;2023-04-03T06:45:51;48.65;;;45.63;;
45714;SDS011;31430;61.646;24.704;2023-04-03T06:48:17;49.08;;;46.03;;
45714;SDS011;31430;61.646;24.704;2023-04-03T06:50:43;49.35;;;46.28;;
45714;SDS011;31430;61.646;24.704;2023-04-03T06:53:09;48.10;;;45.10;;
45714;SDS011;31430;61.646;24.704;2023-04-03T06:55:35;48.13;;;45.13;;
45714;SDS011;31430;61.646;24.704;2023-04-03T06:58:01;45.30;;;42.50;;
45714;SDS011;31430;61.646;24.704;2023-04-03T07:00:28;48.53;;;45.53;;
45714;SDS011;31430;61.646;24.704;2023-04-03T07:02:55;49.30;;;46.22;;
45714;SDS011;31430;61.646;24.704;2023-04-03T07:05:22;47.15;;;44.22;;
45714;SDS011;31430;61.646;24.704;2023-04-03T07:07:49;46.40;;;43.50;;
45714;SDS011;31430;61.646;24.704;2023-04-03T07:10:16;46.95;;;44.05;;
45714;SDS011;31430;61.646;24.704;2023-04-03T07:12:42;45.55;;;42.72;;
45714;SDS011;31430;61.646;24.704;2023-04-03T07:15:08;45.85;;;43.00;;
45714;SDS011;31430;61.646;24.704;2023-04-03T07:17:34;47.15;;;44.22;;
45714;SDS011;31430;61.646;24.704;2023-04-03T07:20:02;48.40;;;45.40;;
45714;SDS011;31430;61.646;24.704;2023-04-03T07:22:28;48.28;;;45.28;;
45714;SDS011;31430;61.646;24.704;2023-04-03T07:27:20;56.97;;;53.45;;
45714;SDS011;31430;61.646;24.704;2023-04-03T07:29:46;48.55;;;45.55;;
45714;SDS011;31430;61.646;24.704;2023-04-03T07:32:13;48.53;;;45.53;;
45714;SDS011;31430;61.646;24.704;2023-04-03T07:34:40;46.90;;;44.00;;
45714;SDS011;31430;61.646;24.704;2023-04-03T07:37:06;47.25;;;44.33;;
45714;SDS011;31430;61.646;24.704;2023-04-03T07:41:57;50.17;;;47.08;;
45714;SDS011;31430;61.646;24.704;2023-04-03T07:46:49;50.00;;;46.90;;
45714;SDS011;31430;61.646;24.704;2023-04-03T07:51:43;50.20;;;47.08;;
45714;SDS011;31430;61.646;24.704;2023-04-03T07:54:09;49.28;;;46.20;;
45714;SDS011;31430;61.646;24.704;2023-04-03T07:59:00;50.47;;;47.35;;
45714;SDS011;31430;61.646;24.704;2023-04-03T08:03:52;49.88;;;46.78;;
45714;SDS011;31430;61.646;24.704;2023-04-03T08:08:43;51.40;;;48.20;;
45714;SDS011;31430;61.646;24.704;2023-04-03T08:13:35;50.55;;;47.42;;
45714;SDS011;31430;61.646;24.704;2023-04-03T08:16:08;49.33;;;46.25;;
45714;SDS011;31430;61.646;24.704;2023-04-03T08:18:41;47.72;;;44.75;;
45714;SDS011;31430;61.646;24.704;2023-04-03T08:23:33;48.97;;;45.95;;
45714;SDS011;31430;61.646;24.704;2023-04-03T08:28:29;49.92;;;46.83;;
45714;SDS011;31430;61.646;24.704;2023-04-03T08:33:21;50.22;;;47.13;;
45714;SDS011;31430;61.646;24.704;2023-04-03T08:38:12;49.95;;;46.85;;
45714;SDS011;31430;61.646;24.704;2023-04-03T08:45:44;47.83;;;44.85;;
45714;SDS011;31430;61.646;24.704;2023-04-03T08:48:20;47.50;;;44.55;;
45714;SDS011;31430;61.646;24.704;2023-04-03T08:50:53;46.22;;;43.35;;
45714;SDS011;31430;61.646;24.704;2023-04-03T08:53:27;47.13;;;44.20;;
45714;SDS011;31430;61.646;24.704;2023-04-03T08:55:57;45.03;;;42.22;;
45714;SDS011;31430;61.646;24.704;2023-04-03T08:58:24;45.17;;;42.38;;
45714;SDS011;31430;61.646;24.704;2023-04-03T09:01:03;46.30;;;43.40;;
45714;SDS011;31430;61.646;24.704;2023-04-03T09:03:45;44.80;;;42.00;;
45714;SDS011;31430;61.646;24.704;2023-04-03T09:19:18;46.03;;;43.15;;
45714;SDS011;31430;61.646;24.704;2023-04-03T09:21:56;47.22;;;44.30;;
45714;SDS011;31430;61.646;24.704;2023-04-03T09:24:23;45.10;;;42.30;;
45714;SDS011;31430;61.646;24.704;2023-04-03T09:29:21;44.38;;;41.60;;
45714;SDS011;31430;61.646;24.704;2023-04-03T09:31:50;45.45;;;42.63;;
45714;SDS011;31430;61.646;24.704;2023-04-03T09:34:25;43.97;;;41.25;;
45714;SDS011;31430;61.646;24.704;2023-04-03T09:36:53;43.83;;;41.10;;
45714;SDS011;31430;61.646;24.704;2023-04-03T09:42:00;44.63;;;41.85;;
45714;SDS011;31430;61.646;24.704;2023-04-03T09:44:32;43.97;;;41.25;;
45714;SDS011;31430;61.646;24.704;2023-04-03T09:47:17;45.35;;;42.55;;
45714;SDS011;31430;61.646;24.704;2023-04-03T09:49:49;44.38;;;41.60;;
45714;SDS011;31430;61.646;24.704;2023-04-03T09:54:45;46.92;;;44.03;;
45714;SDS011;31430;61.646;24.704;2023-04-03T09:59:42;48.45;;;45.45;;
45714;SDS011;31430;61.646;24.704;2023-04-03T10:02:34;47.10;;;44.17;;
45714;SDS011;31430;61.646;24.704;2023-04-03T10:05:03;43.83;;;41.10;;
45714;SDS011;31430;61.646;24.704;2023-04-03T10:07:48;43.77;;;41.07;;
45714;SDS011;31430;61.646;24.704;2023-04-03T10:12:42;44.47;;;41.70;;
45714;SDS011;31430;61.646;24.704;2023-04-03T10:17:57;47.78;;;44.80;;
45714;SDS011;31430;61.646;24.704;2023-04-03T10:20:37;44.95;;;42.15;;
45714;SDS011;31430;61.646;24.704;2023-04-03T10:23:21;46.10;;;43.22;;
45714;SDS011;31430;61.646;24.704;2023-04-03T10:34:24;44.28;;;41.53;;
45714;SDS011;31430;61.646;24.704;2023-04-03T10:39:48;44.35;;;41.58;;
45714;SDS011;31430;61.646;24.704;2023-04-03T10:47:48;44.25;;;41.50;;
45714;SDS011;31430;61.646;24.704;2023-04-03T10:50:26;43.30;;;40.60;;
45714;SDS011;31430;61.646;24.704;2023-04-03T11:01:09;45.67;;;42.83;;
45714;SDS011;31430;61.646;24.704;2023-04-03T11:03:40;44.65;;;41.85;;
45714;SDS011;31430;61.646;24.704;2023-04-03T11:06:10;44.83;;;42.03;;
45714;SDS011;31430;61.646;24.704;2023-04-03T11:11:57;44.60;;;41.80;;
45714;SDS011;31430;61.646;24.704;2023-04-03T11:14:30;44.33;;;41.58;;
45714;SDS011;31430;61.646;24.704;2023-04-03T11:22:24;42.83;;;40.15;;
45714;SDS011;31430;61.646;24.704;2023-04-03T11:27:43;43.47;;;40.78;;
45714;SDS011;31430;61.646;24.704;2023-04-03T11:35:34;42.13;;;39.53;;
45714;SDS011;31430;61.646;24.704;2023-04-03T11:38:01;43.08;;;40.38;;
45714;SDS011;31430;61.646;24.704;2023-04-03T11:40:34;43.40;;;40.70;;
45714;SDS011;31430;61.646;24.704;2023-04-03T11:48:02;41.97;;;39.38;;
45714;SDS011;31430;61.646;24.704;2023-04-03T11:50:46;42.42;;;39.78;;
45714;SDS011;31430;61.646;24.704;2023-04-03T12:08:50;42.45;;;39.83;;
45714;SDS011;31430;61.646;24.704;2023-04-03T12:11:24;41.63;;;39.03;;
45714;SDS011;31430;61.646;24.704;2023-04-03T12:16:21;42.83;;;40.15;;
45714;SDS011;31430;61.646;24.704;2023-04-03T12:21:21;41.60;;;39.00;;
45714;SDS011;31430;61.646;24.704;2023-04-03T12:40:55;43.97;;;41.25;;
45714;SDS011;31430;61.646;24.704;2023-04-03T12:46:19;42.35;;;39.72;;
45714;SDS011;31430;61.646;24.704;2023-04-03T12:48:51;43.13;;;40.42;;
45714;SDS011;31430;61.646;24.704;2023-04-03T12:51:37;43.25;;;40.55;;
45714;SDS011;31430;61.646;24.704;2023-04-03T12:57:08;42.08;;;39.47;;
45714;SDS011;31430;61.646;24.704;2023-04-03T12:59:41;42.20;;;39.60;;
45714;SDS011;31430;61.646;24.704;2023-04-03T13:02:15;42.63;;;39.97;;
45714;SDS011;31430;61.646;24.704;2023-04-03T13:04:46;43.13;;;40.42;;
45714;SDS011;31430;61.646;24.704;2023-04-03T13:12:34;43.13;;;40.42;;
45714;SDS011;31430;61.646;24.704;2023-04-03T13:15:17;43.03;;;40.33;;
45714;SDS011;31430;61.646;24.704;2023-04-03T13:17:50;43.50;;;40.80;;
45714;SDS011;31430;61.646;24.704;2023-04-03T13:20:28;42.88;;;40.20;;
45714;SDS011;31430;61.646;24.704;2023-04-03T13:23:00;42.78;;;40.10;;
45714;SDS011;31430;61.646;24.704;2023-04-03T13:25:31;42.20;;;39.58;;
45714;SDS011;31430;61.646;24.704;2023-04-03T13:27:59;41.88;;;39.28;;
45714;SDS011;31430;61.646;24.704;2023-04-03T13:33:02;40.83;;;38.30;;
45714;SDS011;31430;61.646;24.704;2023-04-03T13:35:32;42.28;;;39.65;;
45714;SDS011;31430;61.646;24.704;2023-04-03T13:40:48;43.10;;;40.40;;
45714;SDS011;31430;61.646;24.704;2023-04-03T13:43:20;41.95;;;39.35;;
45714;SDS011;31430;61.646;24.704;2023-04-03T13:48:39;41.85;;;39.25;;
45714;SDS011;31430;61.646;24.704;2023-04-03T13:53:45;40.40;;;37.90;;
45714;SDS011;31430;61.646;24.704;2023-04-03T14:07:05;42.30;;;39.67;;
45714;SDS011;31430;61.646;24.704;2023-04-03T14:09:31;41.75;;;39.15;;
45714;SDS011;31430;61.646;24.704;2023-04-03T14:12:01;41.03;;;38.47;;
45714;SDS011;31430;61.646;24.704;2023-04-03T14:14:32;42.10;;;39.50;;
45714;SDS011;31430;61.646;24.704;2023-04-03T14:16:59;40.50;;;38.00;;
45714;SDS011;31430;61.646;24.704;2023-04-03T14:19:28;40.60;;;38.10;;
45714;SDS011;31430;61.646;24.704;2023-04-03T14:21:57;41.75;;;39.15;;
45714;SDS011;31430;61.646;24.704;2023-04-03T14:24:24;40.25;;;37.75;;
45714;SDS011;31430;61.646;24.704;2023-04-03T14:29:20;43.05;;;40.35;;
45714;SDS011;31430;61.646;24.704;2023-04-03T14:31:47;42.47;;;39.85;;
45714;SDS011;31430;61.646;24.704;2023-04-03T14:34:14;41.33;;;38.75;;
45714;SDS011;31430;61.646;24.704;2023-04-03T14:36:41;41.42;;;38.83;;
45714;SDS011;31430;61.646;24.704;2023-04-03T14:39:11;40.72;;;38.20;;
45714;SDS011;31430;61.646;24.704;2023-04-03T14:41:42;40.15;;;37.65;;
45714;SDS011;31430;61.646;24.704;2023-04-03T14:44:08;40.53;;;38.03;;
45714;SDS011;31430;61.646;24.704;2023-04-03T14:49:01;43.85;;;41.15;;
45714;SDS011;31430;61.646;24.704;2023-04-03T14:51:32;42.78;;;40.10;;
45714;SDS011;31430;61.646;24.704;2023-04-03T14:53:58;41.22;;;38.63;;
45714;SDS011;31430;61.646;24.704;2023-04-03T14:56:26;40.40;;;37.90;;
45714;SDS011;31430;61.646;24.704;2023-04-03T14:58:58;41.28;;;38.70;;
45714;SDS011;31430;61.646;24.704;2023-04-03T15:01:26;42.65;;;40.00;;
45714;SDS011;31430;61.646;24.704;2023-04-03T15:03:52;40.42;;;37.92;;
45714;SDS011;31430;61.646;24.704;2023-04-03T15:08:45;42.60;;;39.95;;
45714;SDS011;31430;61.646;24.704;2023-04-03T15:11:11;44.53;;;41.75;;
45714;SDS011;31430;61.646;24.704;2023-04-03T15:13:38;41.70;;;39.10;;
45714;SDS011;31430;61.646;24.704;2023-04-03T15:16:05;42.00;;;39.40;;
45714;SDS011;31430;61.646;24.704;2023-04-03T15:18:37;41.10;;;38.53;;
45714;SDS011;31430;61.646;24.704;2023-04-03T15:21:04;40.20;;;37.70;;
45714;SDS011;31430;61.646;24.704;2023-04-03T15:23:30;41.50;;;38.90;;
45714;SDS011;31430;61.646;24.704;2023-04-03T15:25:56;39.63;;;37.15;;
45714;SDS011;31430;61.646;24.704;2023-04-03T15:33:37;41.97;;;39.38;;
45714;SDS011;31430;61.646;24.704;2023-04-03T15:36:03;41.15;;;38.58;;
45714;SDS011;31430;61.646;24.704;2023-04-03T15:38:29;39.90;;;37.40;;
45714;SDS011;31430;61.646;24.704;2023-04-03T15:40:55;41.42;;;38.83;;
45714;SDS011;31430;61.646;24.704;2023-04-03T15:43:21;41.17;;;38.60;;
45714;SDS011;31430;61.646;24.704;2023-04-03T15:45:47;40.35;;;37.85;;
45714;SDS011;31430;61.646;24.704;2023-04-03T15:48:13;41.85;;;39.25;;
45714;SDS011;31430;61.646;24.704;2023-04-03T15:50:40;41.15;;;38.58;;
45714;SDS011;31430;61.646;24.704;2023-04-03T15:53:06;41.40;;;38.80;;
45714;SDS011;31430;61.646;24.704;2023-04-03T15:55:33;40.95;;;38.40;;
45714;SDS011;31430;61.646;24.704;2023-04-03T15:58:01;41.38;;;38.78;;
45714;SDS011;31430;61.646;24.704;2023-04-03T16:00:27;42.60;;;39.95;;
45714;SDS011;31430;61.646;24.704;2023-04-03T16:02:55;41.58;;;38.97;;
45714;SDS011;31430;61.646;24.704;2023-04-03T16:05:24;41.75;;;39.15;;
45714;SDS011;31430;61.646;24.704;2023-04-03T16:10:16;44.65;;;41.88;;
45714;SDS011;31430;61.646;24.704;2023-04-03T16:12:43;42.55;;;39.90;;
45714;SDS011;31430;61.646;24.704;2023-04-03T16:15:10;42.45;;;39.80;;
45714;SDS011;31430;61.646;24.704;2023-04-03T16:20:02;45.33;;;42.53;;
45714;SDS011;31430;61.646;24.704;2023-04-03T16:22:29;45.72;;;42.88;;
45714;SDS011;31430;61.646;24.704;2023-04-03T16:24:55;44.15;;;41.40;;
45714;SDS011;31430;61.646;24.704;2023-04-03T16:29:47;46.70;;;43.80;;
45714;SDS011;31430;61.646;24.704;2023-04-03T16:34:39;47.58;;;44.63;;
45714;SDS011;31430;61.646;24.704;2023-04-03T16:37:05;45.30;;;42.50;;
45714;SDS011;31430;61.646;24.704;2023-04-03T16:39:33;44.58;;;41.78;;
45714;SDS011;31430;61.646;24.704;2023-04-03T16:41:59;43.67;;;40.97;;
45714;SDS011;31430;61.646;24.704;2023-04-03T16:46:51;47.72;;;44.75;;
45714;SDS011;31430;61.646;24.704;2023-04-03T16:51:42;48.55;;;45.55;;
45714;SDS011;31430;61.646;24.704;2023-04-03T16:56:36;49.63;;;46.53;;
45714;SDS011;31430;61.646;24.704;2023-04-03T17:01:27;49.35;;;46.28;;
45714;SDS011;31430;61.646;24.704;2023-04-03T17:06:19;51.47;;;48.28;;
45714;SDS011;31430;61.646;24.704;2023-04-03T17:08:48;48.67;;;45.65;;
45714;SDS011;31430;61.646;24.704;2023-04-03T17:11:16;47.17;;;44.25;;
45714;SDS011;31430;61.646;24.704;2023-04-03T17:13:43;45.97;;;43.10;;
45714;SDS011;31430;61.646;24.704;2023-04-03T17:18:36;47.90;;;44.90;;
45714;SDS011;31430;61.646;24.704;2023-04-03T17:21:02;47.53;;;44.58;;
45714;SDS011;31430;61.646;24.704;2023-04-03T17:23:29;48.53;;;45.53;;
45714;SDS011;31430;61.646;24.704;2023-04-03T17:25:55;47.25;;;44.33;;
45714;SDS011;31430;61.646;24.704;2023-04-03T17:30:52;48.10;;;45.10;;
45714;SDS011;31430;61.646;24.704;2023-04-03T17:33:19;46.75;;;43.85;;
45714;SDS011;31430;61.646;24.704;2023-04-03T17:38:11;49.38;;;46.30;;
45714;SDS011;31430;61.646;24.704;2023-04-03T17:40:36;50.25;;;47.13;;
45714;SDS011;31430;61.646;24.704;2023-04-03T17:45:28;50.97;;;47.80;;
45714;SDS011;31430;61.646;24.704;2023-04-03T17:47:53;49.78;;;46.67;;
45714;SDS011;31430;61.646;24.704;2023-04-03T17:50:19;48.53;;;45.53;;
45714;SDS011;31430;61.646;24.704;2023-04-03T17:52:45;47.67;;;44.70;;
45714;SDS011;31430;61.646;24.704;2023-04-03T17:55:11;45.85;;;43.00;;
45714;SDS011;31430;61.646;24.704;2023-04-03T17:57:39;47.47;;;44.53;;
45714;SDS011;31430;61.646;24.704;2023-04-03T18:00:05;47.67;;;44.70;;
45714;SDS011;31430;61.646;24.704;2023-04-03T18:02:31;45.97;;;43.10;;
45714;SDS011;31430;61.646;24.704;2023-04-03T18:04:57;47.08;;;44.15;;
45714;SDS011;31430;61.646;24.704;2023-04-03T18:07:23;46.45;;;43.55;;
45714;SDS011;31430;61.646;24.704;2023-04-03T18:09:49;47.40;;;44.45;;